createdAt,value
2022-12-04T00:00:14.881Z,0.00
2022-12-04T00:02:42.146Z,0.00
2022-12-04T00:05:09.933Z,0.00
2022-12-04T00:07:36.890Z,0.00
2022-12-04T00:10:04.298Z,0.00
2022-12-04T00:12:31.150Z,0.00
2022-12-04T00:15:24.567Z,-0.10
2022-12-04T00:17:48.967Z,0.00
2022-12-04T00:20:16.106Z,0.00
2022-12-04T00:22:42.838Z,0.00
2022-12-04T00:25:09.769Z,-0.10
2022-12-04T00:27:36.615Z,-0.10
2022-12-04T00:30:04.168Z,0.00
2022-12-04T00:32:30.927Z,0.00
2022-12-04T00:34:57.835Z,-0.10
2022-12-04T00:37:24.643Z,-0.10
2022-12-04T00:39:51.515Z,-0.10
2022-12-04T00:42:18.372Z,-0.10
2022-12-04T00:44:45.204Z,-0.10
2022-12-04T00:47:11.939Z,-0.10
2022-12-04T00:49:38.672Z,0.00
2022-12-04T00:52:05.491Z,0.00
2022-12-04T00:54:32.241Z,-0.10
2022-12-04T00:56:59.064Z,-0.10
2022-12-04T00:59:25.865Z,0.00
2022-12-04T01:01:52.627Z,0.00
2022-12-04T01:04:19.444Z,0.00
2022-12-04T01:06:46.752Z,0.00
2022-12-04T01:09:13.514Z,0.00
2022-12-04T01:11:40.275Z,0.00
2022-12-04T01:14:07.155Z,0.00
2022-12-04T01:16:37.769Z,-0.10
2022-12-04T01:19:07.857Z,-0.10
2022-12-04T01:21:35.200Z,-0.10
2022-12-04T01:24:01.905Z,-0.10
2022-12-04T01:26:28.845Z,-0.10
2022-12-04T01:28:55.646Z,-0.10
2022-12-04T01:31:23.305Z,0.00
2022-12-04T01:33:51.243Z,0.00
2022-12-04T01:36:24.178Z,0.00
2022-12-04T01:38:51.470Z,0.00
2022-12-04T01:41:23.868Z,0.00
2022-12-04T01:44:13.959Z,-0.10
2022-12-04T01:46:42.243Z,-0.10
2022-12-04T01:49:31.782Z,-0.10
2022-12-04T01:52:03.667Z,-0.10
2022-12-04T01:54:34.334Z,-0.10
2022-12-04T01:57:03.935Z,-0.10
2022-12-04T01:59:41.784Z,0.00
2022-12-04T02:02:19.019Z,0.00
2022-12-04T02:04:46.731Z,0.00
2022-12-04T02:07:13.452Z,-0.10
2022-12-04T02:09:41.733Z,0.00
2022-12-04T02:12:32.880Z,-0.10
2022-12-04T02:15:19.979Z,-0.10
2022-12-04T02:18:01.352Z,0.00
2022-12-04T02:20:39.496Z,-0.10
2022-12-04T02:23:06.133Z,0.00
2022-12-04T02:25:38.618Z,0.00
2022-12-04T02:28:14.953Z,-0.10
2022-12-04T02:30:44.152Z,-0.10
2022-12-04T02:33:23.612Z,-0.10
2022-12-04T02:36:11.475Z,-0.10
2022-12-04T02:38:45.890Z,-0.10
2022-12-04T02:41:28.892Z,-0.20
2022-12-04T02:44:05.410Z,-0.10
2022-12-04T02:46:42.472Z,-0.20
2022-12-04T02:49:15.753Z,-0.20
2022-12-04T02:51:44.970Z,-0.20
2022-12-04T02:54:22.039Z,-0.20
2022-12-04T02:56:50.374Z,-0.20
2022-12-04T02:59:33.802Z,-0.20
2022-12-04T03:02:09.288Z,-0.20
2022-12-04T03:04:38.188Z,-0.10
2022-12-04T03:07:11.542Z,-0.20
2022-12-04T03:09:47.713Z,-0.20
2022-12-04T03:12:25.765Z,-0.10
2022-12-04T03:15:02.538Z,-0.20
2022-12-04T03:17:46.317Z,-0.20
2022-12-04T03:20:16.295Z,-0.20
2022-12-04T03:22:46.142Z,-0.20
2022-12-04T03:25:13.906Z,-0.20
2022-12-04T03:28:16.212Z,-0.20
2022-12-04T03:30:51.715Z,-0.20
2022-12-04T03:33:28.888Z,-0.20
2022-12-04T03:36:02.251Z,-0.10
2022-12-04T03:39:04.726Z,-0.20
2022-12-04T03:42:00.176Z,-0.10
2022-12-04T03:44:48.914Z,-0.20
2022-12-04T03:47:26.956Z,-0.20
2022-12-04T03:50:01.818Z,-0.10
2022-12-04T03:52:34.459Z,-0.20
2022-12-04T03:55:08.911Z,-0.20
2022-12-04T03:57:41.812Z,-0.20
2022-12-04T04:00:19.122Z,-0.20
2022-12-04T04:02:58.221Z,-0.10
2022-12-04T04:05:27.553Z,-0.20
2022-12-04T04:08:17.860Z,-0.10
2022-12-04T04:10:45.250Z,-0.10
2022-12-04T04:13:35.622Z,-0.10
2022-12-04T04:16:23.497Z,-0.10
2022-12-04T04:19:11.269Z,-0.10
2022-12-04T04:21:58.780Z,-0.20
2022-12-04T04:24:41.784Z,-0.10
2022-12-04T04:27:08.620Z,-0.10
2022-12-04T04:29:35.878Z,-0.10
2022-12-04T04:32:13.550Z,-0.10
2022-12-04T04:35:07.988Z,-0.10
2022-12-04T04:37:55.812Z,-0.10
2022-12-04T04:40:33.857Z,-0.10
2022-12-04T04:43:03.909Z,0.00
2022-12-04T04:45:44.712Z,-0.10
2022-12-04T04:48:41.836Z,-0.10
2022-12-04T04:51:09.775Z,-0.10
2022-12-04T04:53:51.585Z,-0.10
2022-12-04T04:56:19.321Z,-0.10
2022-12-04T04:58:46.146Z,-0.10
2022-12-04T05:01:16.084Z,0.00
2022-12-04T05:03:43.106Z,-0.10
2022-12-04T05:06:10.261Z,-0.10
2022-12-04T05:08:37.950Z,0.00
2022-12-04T05:11:05.495Z,-0.10
2022-12-04T05:13:32.984Z,0.00
2022-12-04T05:16:05.918Z,0.00
2022-12-04T05:18:34.329Z,0.00
2022-12-04T05:21:09.588Z,0.00
2022-12-04T05:23:36.308Z,0.00
2022-12-04T05:26:05.407Z,0.00
2022-12-04T05:28:32.403Z,0.00
2022-12-04T05:31:01.777Z,0.00
2022-12-04T05:33:29.983Z,0.10
2022-12-04T05:36:01.540Z,0.00
2022-12-04T05:38:28.653Z,0.00
2022-12-04T05:40:57.460Z,0.00
2022-12-04T05:43:24.233Z,0.00
2022-12-04T05:45:50.980Z,0.10
2022-12-04T05:48:17.737Z,0.20
2022-12-04T05:50:44.559Z,0.10
2022-12-04T05:53:11.344Z,0.10
2022-12-04T05:55:38.183Z,0.10
2022-12-04T05:58:04.965Z,0.10
2022-12-04T06:00:32.984Z,0.10
2022-12-04T06:02:59.874Z,0.20
2022-12-04T06:05:26.644Z,0.10
2022-12-04T06:07:53.458Z,0.20
2022-12-04T06:10:20.361Z,0.20
2022-12-04T06:12:47.115Z,0.20
2022-12-04T06:15:13.857Z,0.10
2022-12-04T06:17:40.595Z,0.10
2022-12-04T06:20:11.469Z,0.10
2022-12-04T06:22:39.094Z,0.10
2022-12-04T06:25:07.056Z,0.20
2022-12-04T06:27:33.954Z,0.20
2022-12-04T06:30:00.924Z,0.20
2022-12-04T06:32:27.705Z,0.20
2022-12-04T06:34:55.475Z,0.20
2022-12-04T06:37:24.128Z,0.20
2022-12-04T06:39:50.998Z,0.10
2022-12-04T06:42:18.358Z,0.30
2022-12-04T06:44:45.118Z,0.20
2022-12-04T06:47:11.872Z,0.20
2022-12-04T06:49:38.760Z,0.20
2022-12-04T06:52:05.492Z,0.20
2022-12-04T06:54:32.218Z,0.20
2022-12-04T06:56:59.127Z,0.30
2022-12-04T06:59:26.005Z,0.20
2022-12-04T07:01:52.830Z,0.30
2022-12-04T07:04:19.638Z,0.30
2022-12-04T07:06:46.351Z,0.20
2022-12-04T07:09:17.820Z,0.40
2022-12-04T07:11:45.208Z,0.30
2022-12-04T07:14:13.158Z,0.20
2022-12-04T07:16:42.171Z,0.20
2022-12-04T07:19:11.167Z,0.20
2022-12-04T07:21:38.233Z,0.30
2022-12-04T07:24:05.803Z,0.30
2022-12-04T07:26:32.601Z,0.20
2022-12-04T07:28:59.965Z,0.30
2022-12-04T07:31:28.888Z,0.20
2022-12-04T07:33:56.592Z,0.30
2022-12-04T07:36:24.860Z,0.40
2022-12-04T07:38:51.896Z,0.30
2022-12-04T07:41:19.842Z,0.30
2022-12-04T07:43:47.200Z,0.30
2022-12-04T07:46:17.589Z,0.30
2022-12-04T07:48:44.517Z,0.30
2022-12-04T07:51:12.589Z,0.30
2022-12-04T07:53:39.519Z,0.30
2022-12-04T07:56:07.010Z,0.40
2022-12-04T07:58:34.534Z,0.30
2022-12-04T08:01:14.965Z,0.30
2022-12-04T08:03:47.622Z,0.30
2022-12-04T08:06:16.077Z,0.40
2022-12-04T08:08:42.830Z,0.40
2022-12-04T08:11:12.057Z,0.40
2022-12-04T08:13:38.811Z,0.40
2022-12-04T08:16:08.395Z,0.40
2022-12-04T08:18:35.502Z,0.40
2022-12-04T08:21:09.622Z,0.40
2022-12-04T08:23:37.387Z,0.40
2022-12-04T08:26:05.011Z,0.40
2022-12-04T08:28:32.609Z,0.50
2022-12-04T08:31:20.264Z,0.50
2022-12-04T08:33:48.469Z,0.50
2022-12-04T08:36:17.681Z,0.50
2022-12-04T08:38:44.436Z,0.50
2022-12-04T08:41:13.816Z,0.70
2022-12-04T08:43:41.173Z,0.50
2022-12-04T08:46:14.299Z,0.70
2022-12-04T08:48:41.469Z,0.50
2022-12-04T08:51:14.045Z,0.50
2022-12-04T08:53:40.892Z,0.50
2022-12-04T08:56:07.852Z,0.50
2022-12-04T08:58:34.710Z,0.50
2022-12-04T09:01:10.228Z,0.50
2022-12-04T09:03:37.429Z,0.50
2022-12-04T09:06:05.326Z,0.60
2022-12-04T09:08:32.828Z,0.60
2022-12-04T09:11:07.676Z,0.60
2022-12-04T09:13:34.778Z,0.60
2022-12-04T09:16:05.359Z,0.70
2022-12-04T09:18:32.467Z,0.60
2022-12-04T09:21:01.679Z,0.60
2022-12-04T09:23:28.711Z,0.60
2022-12-04T09:25:55.476Z,0.60
2022-12-04T09:28:22.457Z,0.60
2022-12-04T09:31:05.573Z,0.60
2022-12-04T09:33:33.054Z,0.60
2022-12-04T09:36:00.809Z,0.60
2022-12-04T09:38:28.741Z,0.80
2022-12-04T09:41:15.524Z,0.70
2022-12-04T09:43:51.475Z,0.70
2022-12-04T09:46:44.519Z,0.70
2022-12-04T09:49:33.173Z,0.70
2022-12-04T09:52:06.636Z,0.70
2022-12-04T09:54:40.586Z,0.70
2022-12-04T09:57:25.729Z,0.70
2022-12-04T09:59:53.780Z,0.70
2022-12-04T10:02:41.620Z,0.80
2022-12-04T10:05:18.292Z,0.80
2022-12-04T10:07:55.806Z,0.80
2022-12-04T10:10:27.343Z,0.80
2022-12-04T10:13:04.100Z,0.80
2022-12-04T10:16:01.549Z,0.80
2022-12-04T10:18:34.161Z,0.80
2022-12-04T10:21:19.835Z,0.80
2022-12-04T10:23:55.511Z,0.80
2022-12-04T10:26:28.268Z,0.90
2022-12-04T10:29:03.365Z,0.90
2022-12-04T10:31:32.728Z,0.90
2022-12-04T10:34:23.497Z,0.90
2022-12-04T10:36:53.697Z,0.80
2022-12-04T10:39:40.445Z,0.80
2022-12-04T10:42:25.316Z,0.90
2022-12-04T10:44:52.929Z,0.90
2022-12-04T10:47:22.184Z,0.90
2022-12-04T10:49:51.469Z,0.90
2022-12-04T10:52:18.496Z,0.90
2022-12-04T10:54:52.030Z,0.90
2022-12-04T10:57:18.875Z,0.90
2022-12-04T10:59:55.324Z,0.90
2022-12-04T11:02:26.225Z,0.90
2022-12-04T11:04:53.111Z,0.90
2022-12-04T11:07:23.235Z,0.90
2022-12-04T11:10:04.230Z,0.80
2022-12-04T11:12:32.195Z,0.90
2022-12-04T11:15:08.127Z,0.90
2022-12-04T11:17:35.097Z,0.90
2022-12-04T11:20:08.424Z,0.90
2022-12-04T11:22:47.346Z,0.90
2022-12-04T11:25:18.468Z,1.00
2022-12-04T11:27:48.182Z,1.00
2022-12-04T11:30:37.133Z,0.90
2022-12-04T11:33:08.149Z,1.00
2022-12-04T11:35:35.241Z,1.00
2022-12-04T11:38:09.624Z,0.90
2022-12-04T11:40:37.120Z,1.00
2022-12-04T11:43:09.999Z,1.00
2022-12-04T11:45:36.970Z,1.00
2022-12-04T11:48:13.581Z,1.00
2022-12-04T11:51:01.585Z,1.00
2022-12-04T11:53:40.598Z,1.00
2022-12-04T11:56:16.971Z,1.20
2022-12-04T11:58:53.842Z,1.00
2022-12-04T12:01:36.213Z,1.10
2022-12-04T12:04:28.101Z,1.10
2022-12-04T12:07:06.805Z,1.10
2022-12-04T12:10:01.210Z,1.00
2022-12-04T12:12:56.307Z,1.00
2022-12-04T12:15:41.032Z,1.00
2022-12-04T12:18:31.405Z,1.00
2022-12-04T12:21:26.326Z,1.00
2022-12-04T12:24:14.404Z,1.00
2022-12-04T12:27:16.530Z,1.10
2022-12-04T12:29:57.054Z,1.10
2022-12-04T12:32:32.587Z,1.10
2022-12-04T12:35:00.568Z,1.10
2022-12-04T12:37:34.033Z,1.10
2022-12-04T12:40:21.189Z,1.10
2022-12-04T12:43:14.003Z,1.00
2022-12-04T12:46:15.003Z,1.10
2022-12-04T12:49:01.473Z,1.00
2022-12-04T12:51:37.169Z,0.90
2022-12-04T12:54:28.492Z,1.00
2022-12-04T12:57:04.536Z,1.00
2022-12-04T12:59:33.182Z,1.00
2022-12-04T13:02:30.197Z,1.00
2022-12-04T13:05:10.988Z,1.00
2022-12-04T13:07:48.943Z,1.00
2022-12-04T13:10:42.562Z,1.00
2022-12-04T13:13:22.604Z,1.00
2022-12-04T13:15:59.274Z,1.00
2022-12-04T13:18:30.569Z,1.00
2022-12-04T13:21:01.986Z,1.00
2022-12-04T13:23:46.255Z,1.00
2022-12-04T13:26:16.258Z,1.10
2022-12-04T13:28:48.932Z,1.10
2022-12-04T13:32:00.933Z,1.10
2022-12-04T13:34:56.361Z,1.10
2022-12-04T13:37:49.903Z,1.10
2022-12-04T13:40:42.849Z,1.10
2022-12-04T13:43:22.254Z,1.10
2022-12-04T13:45:51.125Z,1.10
2022-12-04T13:48:28.753Z,1.10
2022-12-04T13:51:26.405Z,1.10
2022-12-04T13:54:36.940Z,1.20
2022-12-04T13:57:30.162Z,1.10
2022-12-04T14:00:24.428Z,1.10
2022-12-04T14:02:57.106Z,1.10
2022-12-04T14:05:30.503Z,1.10
2022-12-04T14:08:07.246Z,1.10
2022-12-04T14:10:38.080Z,1.10
2022-12-04T14:13:22.728Z,1.20
2022-12-04T14:16:02.403Z,1.20
2022-12-04T14:18:30.417Z,1.20
2022-12-04T14:21:04.875Z,1.20
2022-12-04T14:23:42.847Z,1.20
2022-12-04T14:27:03.695Z,1.20
2022-12-04T14:29:30.423Z,1.20
2022-12-04T14:32:01.087Z,1.20
2022-12-04T14:34:32.099Z,1.20
2022-12-04T14:36:59.709Z,1.20
2022-12-04T14:39:46.636Z,1.20
2022-12-04T14:42:32.944Z,1.20
2022-12-04T14:45:00.996Z,1.20
2022-12-04T14:47:49.916Z,1.30
2022-12-04T14:50:34.698Z,1.20
2022-12-04T14:53:32.580Z,1.20
2022-12-04T14:56:14.996Z,1.20
2022-12-04T14:58:45.995Z,1.20
2022-12-04T15:01:21.669Z,1.20
2022-12-04T15:03:56.196Z,1.20
2022-12-04T15:06:27.380Z,1.20
2022-12-04T15:09:19.663Z,1.20
2022-12-04T15:12:11.446Z,1.30
2022-12-04T15:14:50.029Z,1.20
2022-12-04T15:17:18.753Z,1.20
2022-12-04T15:19:45.967Z,1.10
2022-12-04T15:22:27.056Z,1.20
2022-12-04T15:24:55.150Z,1.20
2022-12-04T15:27:31.747Z,1.20
2022-12-04T15:30:01.642Z,1.20
2022-12-04T15:32:30.002Z,1.30
2022-12-04T15:35:08.909Z,1.20
2022-12-04T15:37:36.295Z,1.20
2022-12-04T15:40:09.382Z,1.20
2022-12-04T15:42:36.198Z,1.20
2022-12-04T15:45:09.107Z,1.30
2022-12-04T15:47:53.664Z,1.30
2022-12-04T15:50:24.936Z,1.30
2022-12-04T15:53:15.493Z,1.30
2022-12-04T15:55:54.286Z,1.30
2022-12-04T15:58:33.399Z,1.30
2022-12-04T16:01:01.624Z,1.30
2022-12-04T16:03:37.641Z,1.30
2022-12-04T16:06:07.722Z,1.30
2022-12-04T16:08:38.588Z,1.30
2022-12-04T16:11:22.359Z,1.30
2022-12-04T16:14:02.037Z,1.30
2022-12-04T16:16:29.212Z,1.40
2022-12-04T16:18:56.251Z,1.40
2022-12-04T16:21:29.944Z,1.40
2022-12-04T16:24:07.271Z,1.40
2022-12-04T16:26:34.341Z,1.40
2022-12-04T16:29:01.259Z,1.40
2022-12-04T16:31:28.157Z,1.40
2022-12-04T16:33:54.971Z,1.40
2022-12-04T16:36:21.886Z,1.40
2022-12-04T16:38:48.686Z,1.40
2022-12-04T16:41:17.559Z,1.50
2022-12-04T16:43:44.950Z,1.40
2022-12-04T16:46:16.295Z,1.40
2022-12-04T16:48:43.544Z,1.50
2022-12-04T16:51:22.754Z,1.60
2022-12-04T16:53:51.811Z,1.50
2022-12-04T16:56:20.309Z,1.50
2022-12-04T16:58:47.614Z,1.50
2022-12-04T17:01:24.758Z,1.50
2022-12-04T17:03:52.071Z,1.50
2022-12-04T17:06:19.039Z,1.50
2022-12-04T17:08:46.140Z,1.50
2022-12-04T17:11:14.669Z,1.50
2022-12-04T17:13:41.988Z,1.50
2022-12-04T17:16:10.627Z,1.50
2022-12-04T17:18:42.262Z,1.50
2022-12-04T17:21:11.444Z,1.50
2022-12-04T17:23:39.235Z,1.50
2022-12-04T17:26:08.471Z,1.50
2022-12-04T17:28:36.525Z,1.50
2022-12-04T17:31:06.173Z,1.50
2022-12-04T17:33:33.581Z,1.70
2022-12-04T17:36:00.463Z,1.60
2022-12-04T17:38:27.936Z,1.60
2022-12-04T17:41:01.871Z,1.50
2022-12-04T17:43:30.156Z,1.60
2022-12-04T17:45:58.018Z,1.60
2022-12-04T17:48:25.628Z,1.60
2022-12-04T17:51:22.256Z,1.60
2022-12-04T17:53:49.535Z,1.60
2022-12-04T17:56:21.209Z,1.60
2022-12-04T17:58:48.300Z,1.60
2022-12-04T18:01:28.720Z,1.60
2022-12-04T18:03:57.968Z,1.60
2022-12-04T18:06:30.619Z,1.60
2022-12-04T18:08:57.835Z,1.60
2022-12-04T18:11:27.962Z,1.60
2022-12-04T18:14:00.123Z,1.60
2022-12-04T18:16:29.195Z,1.60
2022-12-04T18:18:57.104Z,1.60
2022-12-04T18:21:24.117Z,1.60
2022-12-04T18:23:51.065Z,1.70
2022-12-04T18:26:22.776Z,1.60
2022-12-04T18:28:50.822Z,1.70
2022-12-04T18:31:19.423Z,1.80
2022-12-04T18:33:49.432Z,1.70
2022-12-04T18:36:24.993Z,1.70
2022-12-04T18:39:00.456Z,1.90
2022-12-04T18:41:28.314Z,1.70
2022-12-04T18:43:55.523Z,1.70
2022-12-04T18:46:22.809Z,1.70
2022-12-04T18:48:52.777Z,1.70
2022-12-04T18:51:21.173Z,1.70
2022-12-04T18:53:48.911Z,1.90
2022-12-04T18:56:16.748Z,1.70
2022-12-04T18:58:44.689Z,1.80
2022-12-04T19:01:19.742Z,1.70
2022-12-04T19:03:47.608Z,1.70
2022-12-04T19:06:15.429Z,1.70
2022-12-04T19:08:43.504Z,1.80
2022-12-04T19:11:15.989Z,1.70
2022-12-04T19:13:43.471Z,1.70
2022-12-04T19:16:12.731Z,1.70
2022-12-04T19:18:39.640Z,1.70
2022-12-04T19:21:09.919Z,1.70
2022-12-04T19:23:36.860Z,1.80
2022-12-04T19:26:04.169Z,1.80
2022-12-04T19:28:31.157Z,1.90
2022-12-04T19:30:58.249Z,1.80
2022-12-04T19:33:26.413Z,1.80
2022-12-04T19:36:13.369Z,1.70
2022-12-04T19:38:41.113Z,1.70
2022-12-04T19:41:15.436Z,1.80
2022-12-04T19:43:45.141Z,1.80
2022-12-04T19:46:15.445Z,1.80
2022-12-04T19:48:42.828Z,1.80
2022-12-04T19:51:15.611Z,1.80
2022-12-04T19:53:49.248Z,1.80
2022-12-04T19:56:25.821Z,1.80
2022-12-04T19:58:53.881Z,1.80
2022-12-04T20:01:28.695Z,1.80
2022-12-04T20:03:56.466Z,1.80
2022-12-04T20:06:26.044Z,1.80
2022-12-04T20:09:05.129Z,1.80
2022-12-04T20:11:37.908Z,1.80
2022-12-04T20:14:09.652Z,1.80
2022-12-04T20:16:37.849Z,1.80
2022-12-04T20:19:06.765Z,1.80
2022-12-04T20:21:33.628Z,1.80
2022-12-04T20:24:11.303Z,1.80
2022-12-04T20:26:39.958Z,1.80
2022-12-04T20:29:09.512Z,1.80
2022-12-04T20:31:39.009Z,1.80
2022-12-04T20:34:16.084Z,1.90
2022-12-04T20:36:47.781Z,1.90
2022-12-04T20:39:24.090Z,1.80
2022-12-04T20:41:50.901Z,1.90
2022-12-04T20:44:19.364Z,2.00
2022-12-04T20:46:47.372Z,1.90
2022-12-04T20:49:21.664Z,1.90
2022-12-04T20:51:51.044Z,1.90
2022-12-04T20:54:26.834Z,1.90
2022-12-04T20:56:53.942Z,1.90
2022-12-04T20:59:23.168Z,1.90
2022-12-04T21:01:51.494Z,1.80
2022-12-04T21:04:18.963Z,1.80
2022-12-04T21:06:51.337Z,1.80
2022-12-04T21:09:42.192Z,1.90
2022-12-04T21:12:30.672Z,1.90
2022-12-04T21:15:15.972Z,1.90
2022-12-04T21:17:42.663Z,1.90
2022-12-04T21:20:10.375Z,1.90
2022-12-04T21:22:37.545Z,1.90
2022-12-04T21:25:04.619Z,2.00
2022-12-04T21:27:31.426Z,1.90
2022-12-04T21:30:00.022Z,2.00
2022-12-04T21:32:29.779Z,1.90
2022-12-04T21:34:56.586Z,1.90
2022-12-04T21:37:23.386Z,2.00
2022-12-04T21:39:50.365Z,1.90
2022-12-04T21:42:32.742Z,1.90
2022-12-04T21:45:06.319Z,1.90
2022-12-04T21:47:37.247Z,1.90
2022-12-04T21:50:13.221Z,1.90
2022-12-04T21:52:39.976Z,2.00
2022-12-04T21:55:06.932Z,1.90
2022-12-04T21:57:33.726Z,2.00
2022-12-04T22:00:04.250Z,1.90
2022-12-04T22:02:31.802Z,2.00
2022-12-04T22:04:58.565Z,2.00
2022-12-04T22:07:28.322Z,2.00
2022-12-04T22:09:55.316Z,2.10
2022-12-04T22:15:11.988Z,2.00
2022-12-04T22:17:38.752Z,2.00
2022-12-04T22:20:06.470Z,2.10
2022-12-04T22:22:35.289Z,2.00
2022-12-04T22:25:02.227Z,2.00
2022-12-04T22:27:28.980Z,2.00
2022-12-04T22:29:56.027Z,2.00
2022-12-04T22:32:22.836Z,2.00
2022-12-04T22:34:49.770Z,2.00
2022-12-04T22:37:16.673Z,2.00
2022-12-04T22:39:43.521Z,2.00
2022-12-04T22:42:10.341Z,2.00
2022-12-04T22:44:37.066Z,2.00
2022-12-04T22:47:04.096Z,1.90
2022-12-04T22:49:30.934Z,2.00
2022-12-04T22:51:58.018Z,2.00
2022-12-04T22:54:24.822Z,2.00
2022-12-04T22:56:51.537Z,2.00
2022-12-04T22:59:18.288Z,2.00
2022-12-04T23:01:45.041Z,2.00
2022-12-04T23:04:11.780Z,2.00
2022-12-04T23:06:38.542Z,2.10
2022-12-04T23:09:08.305Z,2.00
2022-12-04T23:11:36.650Z,2.00
2022-12-04T23:14:06.338Z,2.00
2022-12-04T23:16:36.088Z,2.10
2022-12-04T23:19:04.295Z,2.00
2022-12-04T23:21:31.120Z,2.00
2022-12-04T23:23:58.077Z,2.10
2022-12-04T23:26:32.548Z,2.10
2022-12-04T23:28:59.819Z,2.10
2022-12-04T23:31:26.598Z,2.10
2022-12-04T23:33:53.445Z,2.10
2022-12-04T23:36:20.889Z,2.10
2022-12-04T23:38:48.228Z,2.10
2022-12-04T23:41:20.895Z,2.10
2022-12-04T23:43:49.088Z,2.10
2022-12-04T23:46:19.121Z,2.10
2022-12-04T23:48:46.717Z,2.10
2022-12-04T23:51:16.107Z,2.10
2022-12-04T23:53:42.936Z,2.10
2022-12-04T23:56:14.233Z,2.10
2022-12-04T23:58:41.860Z,2.10
